createdAt,value
2017-08-06T00:01:28.486Z,9.37
2017-08-06T00:03:54.453Z,9.57
2017-08-06T00:06:20.393Z,10.00
2017-08-06T00:08:46.381Z,10.50
2017-08-06T00:11:13.070Z,9.80
2017-08-06T00:13:39.037Z,11.20
2017-08-06T00:16:05.017Z,11.13
2017-08-06T00:18:31.715Z,9.87
2017-08-06T00:20:57.714Z,9.83
2017-08-06T00:23:23.658Z,9.93
2017-08-06T00:25:49.613Z,9.60
2017-08-06T00:28:15.589Z,9.00
2017-08-06T00:30:41.597Z,9.87
2017-08-06T00:33:07.550Z,8.47
2017-08-06T00:35:33.501Z,8.20
2017-08-06T00:38:00.261Z,9.30
2017-08-06T00:40:26.209Z,9.03
2017-08-06T00:42:52.154Z,10.20
2017-08-06T00:45:18.139Z,9.80
2017-08-06T00:47:44.830Z,10.33
2017-08-06T00:50:10.854Z,9.00
2017-08-06T00:52:36.814Z,8.47
2017-08-06T00:55:02.765Z,8.70
2017-08-06T00:57:28.741Z,8.60
2017-08-06T00:59:54.699Z,9.20
2017-08-06T01:02:20.685Z,8.90
2017-08-06T01:04:46.633Z,8.70
2017-08-06T01:07:13.318Z,9.10
2017-08-06T01:09:40.047Z,7.77
2017-08-06T01:12:06.002Z,7.80
2017-08-06T01:14:32.021Z,7.57
2017-08-06T01:16:57.975Z,8.17
2017-08-06T01:19:24.678Z,7.87
2017-08-06T01:21:50.665Z,8.93
2017-08-06T01:24:16.630Z,7.90
2017-08-06T01:26:42.591Z,7.40
2017-08-06T01:29:08.579Z,8.27
2017-08-06T01:31:34.574Z,8.63
2017-08-06T01:34:00.564Z,7.50
2017-08-06T01:36:26.500Z,7.70
2017-08-06T01:38:52.439Z,8.90
2017-08-06T01:41:18.413Z,7.90
2017-08-06T01:43:44.384Z,8.47
2017-08-06T01:46:10.369Z,8.47
2017-08-06T01:48:36.292Z,8.50
2017-08-06T01:51:02.973Z,7.33
2017-08-06T01:53:28.948Z,9.83
2017-08-06T01:55:54.894Z,8.40
2017-08-06T01:58:20.832Z,7.97
2017-08-06T02:00:46.826Z,7.73
2017-08-06T02:03:12.789Z,8.23
2017-08-06T02:05:38.740Z,8.60
2017-08-06T02:08:04.703Z,8.40
2017-08-06T02:10:30.644Z,9.07
2017-08-06T02:12:56.620Z,9.47
2017-08-06T02:15:22.584Z,9.97
2017-08-06T02:17:48.529Z,11.07
2017-08-06T02:20:14.496Z,9.93
2017-08-06T02:22:40.490Z,11.83
2017-08-06T02:25:06.445Z,10.70
2017-08-06T02:27:32.384Z,11.57
2017-08-06T02:29:58.348Z,12.10
2017-08-06T02:32:24.332Z,13.47
2017-08-06T02:34:50.272Z,12.97
2017-08-06T02:37:16.213Z,12.07
2017-08-06T02:39:42.188Z,11.60
2017-08-06T02:42:08.120Z,12.70
2017-08-06T02:44:34.088Z,11.20
2017-08-06T02:47:00.028Z,11.00
2017-08-06T02:49:26.001Z,8.60
2017-08-06T02:51:51.949Z,9.90
2017-08-06T02:54:17.917Z,8.53
2017-08-06T02:56:43.856Z,9.47
2017-08-06T02:59:09.829Z,8.43
2017-08-06T03:01:36.545Z,8.20
2017-08-06T03:04:03.241Z,8.90
2017-08-06T03:06:29.238Z,8.83
2017-08-06T03:08:55.178Z,9.27
2017-08-06T03:11:21.141Z,9.10
2017-08-06T03:13:47.144Z,9.20
2017-08-06T03:16:13.091Z,9.70
2017-08-06T03:18:39.024Z,9.93
2017-08-06T03:21:05.753Z,10.00
2017-08-06T03:23:32.456Z,9.17
2017-08-06T03:25:58.388Z,9.43
2017-08-06T03:28:24.368Z,10.27
2017-08-06T03:30:50.297Z,9.13
2017-08-06T03:33:16.229Z,8.87
2017-08-06T03:35:42.229Z,8.57
2017-08-06T03:38:08.163Z,8.33
2017-08-06T03:40:34.836Z,8.50
2017-08-06T03:43:00.800Z,8.57
2017-08-06T03:45:27.480Z,8.27
2017-08-06T03:47:53.448Z,8.07
2017-08-06T03:50:19.452Z,8.30
2017-08-06T03:52:45.429Z,7.30
2017-08-06T03:55:11.376Z,8.40
2017-08-06T03:57:37.311Z,8.70
2017-08-06T04:00:03.280Z,8.43
2017-08-06T04:02:29.217Z,8.67
2017-08-06T04:04:55.153Z,8.40
2017-08-06T04:07:21.120Z,8.00
2017-08-06T04:09:47.056Z,7.67
2017-08-06T04:12:12.980Z,8.83
2017-08-06T04:14:38.957Z,7.43
2017-08-06T04:17:04.905Z,6.90
2017-08-06T04:22:03.427Z,8.07
2017-08-06T04:24:29.408Z,7.00
2017-08-06T04:26:55.389Z,7.57
2017-08-06T04:29:21.324Z,6.70
2017-08-06T04:31:47.261Z,6.57
2017-08-06T04:34:13.231Z,7.43
2017-08-06T04:36:39.165Z,6.80
2017-08-06T04:39:05.872Z,6.83
2017-08-06T04:41:31.817Z,7.13
2017-08-06T04:43:57.818Z,6.10
2017-08-06T04:46:23.776Z,6.23
2017-08-06T04:48:49.716Z,7.33
2017-08-06T04:51:16.445Z,5.60
2017-08-06T04:53:43.133Z,6.40
2017-08-06T04:56:09.076Z,6.70
2017-08-06T04:58:35.813Z,6.20
2017-08-06T05:01:01.761Z,6.40
2017-08-06T05:03:27.709Z,6.40
2017-08-06T05:05:53.685Z,6.90
2017-08-06T05:08:19.628Z,5.87
2017-08-06T05:10:46.353Z,6.57
2017-08-06T05:13:13.033Z,5.63
2017-08-06T05:15:39.013Z,6.47
2017-08-06T05:18:04.957Z,6.60
2017-08-06T05:20:30.907Z,6.20
2017-08-06T05:22:57.639Z,6.10
2017-08-06T05:25:24.312Z,6.70
2017-08-06T05:27:50.280Z,6.30
2017-08-06T05:30:16.999Z,6.90
2017-08-06T05:32:43.713Z,5.50
2017-08-06T05:35:09.656Z,6.50
2017-08-06T05:37:35.677Z,5.83
2017-08-06T05:40:01.616Z,6.30
2017-08-06T05:42:27.564Z,6.10
2017-08-06T05:44:54.317Z,6.03
2017-08-06T05:47:20.266Z,7.40
2017-08-06T05:49:46.252Z,8.30
2017-08-06T05:52:12.192Z,7.90
2017-08-06T05:54:38.152Z,7.43
2017-08-06T05:57:04.132Z,7.00
2017-08-06T05:59:30.077Z,9.30
2017-08-06T06:01:56.017Z,9.60
2017-08-06T06:04:21.992Z,9.07
2017-08-06T06:06:47.951Z,7.50
2017-08-06T06:09:14.665Z,7.40
2017-08-06T06:11:40.605Z,7.47
2017-08-06T06:14:06.580Z,7.00
2017-08-06T06:16:32.521Z,8.23
2017-08-06T06:18:58.473Z,7.40
2017-08-06T06:21:24.464Z,6.97
2017-08-06T06:23:50.436Z,6.17
2017-08-06T06:26:16.372Z,5.53
2017-08-06T06:28:42.352Z,5.93
2017-08-06T06:31:08.304Z,5.37
2017-08-06T06:33:34.244Z,5.23
2017-08-06T06:36:00.237Z,5.50
2017-08-06T06:38:26.173Z,5.73
2017-08-06T06:40:52.113Z,4.93
2017-08-06T06:43:18.088Z,5.40
2017-08-06T06:45:44.024Z,4.40
2017-08-06T06:48:09.988Z,4.87
2017-08-06T06:50:36.696Z,4.67
2017-08-06T06:53:03.429Z,5.70
2017-08-06T06:55:30.109Z,5.27
2017-08-06T06:57:56.056Z,5.33
2017-08-06T07:00:22.796Z,5.93
2017-08-06T07:02:48.746Z,5.73
2017-08-06T07:05:14.731Z,6.23
2017-08-06T07:07:40.721Z,6.03
2017-08-06T07:10:07.411Z,5.63
2017-08-06T07:12:33.369Z,6.00
2017-08-06T07:14:59.408Z,6.03
2017-08-06T07:17:25.348Z,5.87
2017-08-06T07:19:51.317Z,7.67
2017-08-06T07:22:17.304Z,7.20
2017-08-06T07:24:43.281Z,7.70
2017-08-06T07:27:09.985Z,5.97
2017-08-06T07:29:35.964Z,5.80
2017-08-06T07:32:01.909Z,5.53
2017-08-06T07:34:28.375Z,4.97
2017-08-06T07:36:54.469Z,5.00
2017-08-06T07:39:20.471Z,4.80
2017-08-06T07:41:46.416Z,4.73
2017-08-06T07:44:13.134Z,5.50
2017-08-06T07:46:39.877Z,5.47
2017-08-06T07:49:05.820Z,6.10
2017-08-06T07:51:31.776Z,6.00
2017-08-06T07:54:05.433Z,5.70
2017-08-06T07:56:31.380Z,6.00
2017-08-06T07:58:57.380Z,5.70
2017-08-06T08:01:23.328Z,5.10
2017-08-06T08:03:49.352Z,5.40
2017-08-06T08:06:15.329Z,6.03
2017-08-06T08:08:41.297Z,5.60
2017-08-06T08:11:07.268Z,5.30
2017-08-06T08:13:33.240Z,4.27
2017-08-06T08:15:59.922Z,6.33
2017-08-06T08:18:25.883Z,5.27
2017-08-06T08:20:51.900Z,5.40
2017-08-06T08:23:17.917Z,5.50
2017-08-06T08:25:43.893Z,4.90
2017-08-06T08:28:09.860Z,6.03
2017-08-06T08:30:35.821Z,4.57
2017-08-06T08:33:01.756Z,4.20
2017-08-06T08:35:27.720Z,5.20
2017-08-06T08:37:54.460Z,4.57
2017-08-06T08:40:20.405Z,5.33
2017-08-06T08:42:46.338Z,4.50
2017-08-06T08:45:12.364Z,4.27
2017-08-06T08:47:38.293Z,4.23
2017-08-06T08:50:04.241Z,4.37
2017-08-06T08:52:30.281Z,3.43
2017-08-06T08:54:56.233Z,3.40
2017-08-06T08:57:22.208Z,4.00
2017-08-06T08:59:48.148Z,3.80
2017-08-06T09:02:14.085Z,3.70
2017-08-06T09:04:40.079Z,4.00
2017-08-06T09:07:06.012Z,3.70
2017-08-06T09:09:32.021Z,4.23
2017-08-06T09:11:57.988Z,4.20
2017-08-06T09:14:23.933Z,4.00
2017-08-06T09:16:49.900Z,3.70
2017-08-06T09:19:15.845Z,4.40
2017-08-06T09:21:41.821Z,3.70
2017-08-06T09:24:07.759Z,4.40
2017-08-06T09:26:33.721Z,4.67
2017-08-06T09:28:59.684Z,4.30
2017-08-06T09:31:25.655Z,4.17
2017-08-06T09:33:51.774Z,4.37
2017-08-06T09:36:17.709Z,5.03
2017-08-06T09:38:43.737Z,4.30
2017-08-06T09:41:09.757Z,4.13
2017-08-06T09:43:36.437Z,4.17
2017-08-06T09:46:02.376Z,5.37
2017-08-06T09:48:28.349Z,3.67
2017-08-06T09:50:54.445Z,3.80
2017-08-06T09:53:20.386Z,4.47
2017-08-06T09:55:46.380Z,4.20
2017-08-06T09:58:12.378Z,4.50
2017-08-06T10:00:38.360Z,4.40
2017-08-06T10:03:04.466Z,4.57
2017-08-06T10:05:31.149Z,4.47
2017-08-06T10:07:57.144Z,4.20
2017-08-06T10:10:23.092Z,4.30
2017-08-06T10:12:49.789Z,4.20
2017-08-06T10:15:15.757Z,4.60
2017-08-06T10:17:41.701Z,4.30
2017-08-06T10:20:07.704Z,5.10
2017-08-06T10:22:33.633Z,4.60
2017-08-06T10:24:59.572Z,4.43
2017-08-06T10:27:25.545Z,4.57
2017-08-06T10:29:52.368Z,5.50
2017-08-06T10:32:18.360Z,4.80
2017-08-06T10:34:44.300Z,4.70
2017-08-06T10:37:10.278Z,5.13
2017-08-06T10:39:36.248Z,4.57
2017-08-06T10:42:02.205Z,4.53
2017-08-06T10:44:28.181Z,5.10
2017-08-06T10:46:54.108Z,5.03
2017-08-06T10:49:20.077Z,4.87
2017-08-06T10:51:46.028Z,4.63
2017-08-06T10:54:11.960Z,4.17
2017-08-06T10:56:37.928Z,4.50
2017-08-06T10:59:03.896Z,4.37
2017-08-06T11:01:30.576Z,4.80
2017-08-06T11:03:56.560Z,4.17
2017-08-06T11:06:22.492Z,3.83
2017-08-06T11:08:48.746Z,4.47
2017-08-06T11:11:15.480Z,4.57
2017-08-06T11:13:42.165Z,4.80
2017-08-06T11:16:08.108Z,4.20
2017-08-06T11:18:34.820Z,3.90
2017-08-06T11:21:00.748Z,4.50
2017-08-06T11:23:27.429Z,4.10
2017-08-06T11:25:53.445Z,3.63
2017-08-06T11:28:19.396Z,4.63
2017-08-06T11:30:45.341Z,4.10
2017-08-06T11:33:11.332Z,4.97
2017-08-06T11:35:37.280Z,3.90
2017-08-06T11:38:03.248Z,4.20
2017-08-06T11:40:29.240Z,4.27
2017-08-06T11:42:55.177Z,4.70
2017-08-06T11:45:21.120Z,4.53
2017-08-06T11:47:47.080Z,4.90
2017-08-06T11:50:13.105Z,4.70
2017-08-06T11:52:39.042Z,5.53
2017-08-06T11:55:05.037Z,4.80
2017-08-06T11:57:31.117Z,4.33
2017-08-06T11:59:57.055Z,3.87
2017-08-06T12:02:23.045Z,3.40
2017-08-06T12:04:49.232Z,3.80
2017-08-06T12:07:15.386Z,4.47
2017-08-06T12:09:41.396Z,6.30
2017-08-06T12:12:07.336Z,3.80
2017-08-06T12:14:33.285Z,4.40
2017-08-06T12:16:59.277Z,4.10
2017-08-06T12:19:25.265Z,3.77
2017-08-06T12:21:51.200Z,4.00
2017-08-06T12:24:17.177Z,3.83
2017-08-06T12:26:43.889Z,3.37
2017-08-06T12:29:10.556Z,3.87
2017-08-06T12:31:36.522Z,4.40
2017-08-06T12:34:03.215Z,3.33
2017-08-06T12:36:29.212Z,3.57
2017-08-06T12:38:55.144Z,3.60
2017-08-06T12:41:21.100Z,4.03
2017-08-06T12:43:47.068Z,4.20
2017-08-06T12:46:13.037Z,3.23
2017-08-06T12:48:38.963Z,3.60
2017-08-06T12:51:04.960Z,3.70
2017-08-06T12:53:30.889Z,2.97
2017-08-06T12:55:56.911Z,3.43
2017-08-06T12:58:22.900Z,3.80
2017-08-06T13:00:48.900Z,3.13
2017-08-06T13:03:14.827Z,3.90
2017-08-06T13:05:40.760Z,3.87
2017-08-06T13:08:07.463Z,3.37
2017-08-06T13:10:33.396Z,3.50
2017-08-06T13:13:00.115Z,2.93
2017-08-06T13:15:26.794Z,3.27
2017-08-06T13:17:52.845Z,3.70
2017-08-06T13:20:19.549Z,3.50
2017-08-06T13:22:45.504Z,3.50
2017-08-06T13:25:11.516Z,3.70
2017-08-06T13:27:37.452Z,3.90
2017-08-06T13:30:03.393Z,3.20
2017-08-06T13:32:29.368Z,3.67
2017-08-06T13:34:55.553Z,3.10
2017-08-06T13:37:21.561Z,3.40
2017-08-06T13:39:47.593Z,3.70
2017-08-06T13:42:13.706Z,3.40
2017-08-06T13:44:39.844Z,3.70
2017-08-06T13:47:05.798Z,2.97
2017-08-06T13:49:31.756Z,2.80
2017-08-06T13:51:57.744Z,3.23
2017-08-06T13:54:24.136Z,3.40
2017-08-06T13:56:50.140Z,3.30
2017-08-06T13:59:16.373Z,3.00
2017-08-06T14:01:42.309Z,2.70
2017-08-06T14:04:08.469Z,3.47
2017-08-06T14:06:34.440Z,2.90
2017-08-06T14:09:00.408Z,2.80
2017-08-06T14:11:27.096Z,2.93
2017-08-06T14:13:53.373Z,3.60
2017-08-06T14:16:19.318Z,3.17
2017-08-06T14:18:45.265Z,2.80
2017-08-06T14:21:11.994Z,3.23
2017-08-06T14:23:38.709Z,3.10
2017-08-06T14:26:04.648Z,3.23
2017-08-06T14:28:30.621Z,3.13
2017-08-06T14:30:56.556Z,3.13
2017-08-06T14:33:22.541Z,2.90
2017-08-06T14:35:49.216Z,2.70
2017-08-06T14:38:15.148Z,2.90
2017-08-06T14:40:41.140Z,2.77
2017-08-06T14:43:07.087Z,3.00
2017-08-06T14:45:33.040Z,3.00
2017-08-06T14:47:59.015Z,2.97
2017-08-06T14:50:25.741Z,3.10
2017-08-06T14:52:52.469Z,3.10
2017-08-06T14:55:19.196Z,2.67
2017-08-06T14:57:45.135Z,2.53
2017-08-06T15:00:11.101Z,2.87
2017-08-06T15:02:37.029Z,3.00
2017-08-06T15:05:02.965Z,3.00
2017-08-06T15:07:28.932Z,2.87
2017-08-06T15:09:55.652Z,3.40
2017-08-06T15:12:21.596Z,2.90
2017-08-06T15:14:47.528Z,3.30
2017-08-06T15:17:13.487Z,3.50
2017-08-06T15:19:39.448Z,3.37
2017-08-06T15:22:05.458Z,3.43
2017-08-06T15:24:31.461Z,2.80
2017-08-06T15:26:57.433Z,2.87
2017-08-06T15:29:23.380Z,3.20
2017-08-06T15:31:49.402Z,2.70
2017-08-06T15:34:15.345Z,3.17
2017-08-06T15:36:42.020Z,3.60
2017-08-06T15:39:07.994Z,2.67
2017-08-06T15:41:33.948Z,2.63
2017-08-06T15:43:59.960Z,2.40
2017-08-06T15:46:25.901Z,2.97
2017-08-06T15:48:52.575Z,3.00
2017-08-06T15:51:18.560Z,3.10
2017-08-06T15:53:44.501Z,3.13
2017-08-06T15:56:10.496Z,3.23
2017-08-06T15:58:36.428Z,3.20
2017-08-06T16:01:02.372Z,3.40
2017-08-06T16:03:28.344Z,3.50
2017-08-06T16:05:54.279Z,3.43
2017-08-06T16:08:20.253Z,3.20
2017-08-06T16:10:46.200Z,3.10
2017-08-06T16:13:12.909Z,2.87
2017-08-06T16:15:39.584Z,2.97
2017-08-06T16:18:05.584Z,3.00
2017-08-06T16:20:31.541Z,2.73
2017-08-06T16:22:57.472Z,3.40
2017-08-06T16:25:23.447Z,2.33
2017-08-06T16:27:49.396Z,2.70
2017-08-06T16:30:15.356Z,2.30
2017-08-06T16:35:14.137Z,2.77
2017-08-06T16:37:40.157Z,3.40
2017-08-06T16:40:06.097Z,3.07
2017-08-06T16:42:32.116Z,2.63
2017-08-06T16:44:58.061Z,3.10
2017-08-06T16:47:24.005Z,2.30
2017-08-06T16:49:50.732Z,2.50
2017-08-06T16:52:17.435Z,2.43
2017-08-06T16:54:43.376Z,2.60
2017-08-06T16:57:09.360Z,2.83
2017-08-06T16:59:35.316Z,2.70
2017-08-06T17:02:01.261Z,2.50
2017-08-06T17:04:27.237Z,2.30
2017-08-06T17:06:53.217Z,2.40
2017-08-06T17:09:19.205Z,2.50
2017-08-06T17:11:45.148Z,2.47
2017-08-06T17:14:11.133Z,3.00
2017-08-06T17:16:37.818Z,2.00
2017-08-06T17:19:03.815Z,2.33
2017-08-06T17:21:29.787Z,2.80
2017-08-06T17:23:55.756Z,2.60
2017-08-06T17:26:21.725Z,3.10
2017-08-06T17:28:47.689Z,2.60
2017-08-06T17:31:13.668Z,2.70
2017-08-06T17:33:39.636Z,2.53
2017-08-06T17:36:05.609Z,2.83
2017-08-06T17:38:31.592Z,2.53
2017-08-06T17:40:57.578Z,2.47
2017-08-06T17:43:23.518Z,2.47
2017-08-06T17:45:49.500Z,2.50
2017-08-06T17:48:15.473Z,2.27
2017-08-06T17:50:42.214Z,2.13
2017-08-06T17:53:08.184Z,3.17
2017-08-06T17:55:34.153Z,2.33
2017-08-06T17:58:00.093Z,1.70
2017-08-06T18:00:26.041Z,2.43
2017-08-06T18:02:52.024Z,2.57
2017-08-06T18:05:18.704Z,2.30
2017-08-06T18:07:44.676Z,2.60
2017-08-06T18:10:10.620Z,3.30
2017-08-06T18:12:36.552Z,2.67
2017-08-06T18:15:02.512Z,2.47
2017-08-06T18:17:28.480Z,2.20
2017-08-06T18:19:54.412Z,2.13
2017-08-06T18:22:21.108Z,2.40
2017-08-06T18:24:47.084Z,1.93
2017-08-06T18:27:13.026Z,2.60
2017-08-06T18:29:39.025Z,2.53
2017-08-06T18:32:05.020Z,2.07
2017-08-06T18:34:30.992Z,2.60
2017-08-06T18:36:56.992Z,2.20
2017-08-06T18:39:22.940Z,2.50
2017-08-06T18:41:48.900Z,2.10
2017-08-06T18:44:15.635Z,2.47
2017-08-06T18:46:41.573Z,2.17
2017-08-06T18:49:07.510Z,2.30
2017-08-06T18:51:33.485Z,2.53
2017-08-06T18:53:59.433Z,3.07
2017-08-06T18:56:25.428Z,3.70
2017-08-06T18:58:51.372Z,2.93
2017-08-06T19:01:18.099Z,2.60
2017-08-06T19:03:44.831Z,3.20
2017-08-06T19:06:10.822Z,3.10
2017-08-06T19:08:36.760Z,2.90
2017-08-06T19:11:02.893Z,3.10
2017-08-06T19:13:28.908Z,2.90
2017-08-06T19:15:54.844Z,2.90
2017-08-06T19:18:20.841Z,2.73
2017-08-06T19:20:46.800Z,2.23
2017-08-06T19:23:12.824Z,2.50
2017-08-06T19:25:38.769Z,2.27
2017-08-06T19:28:04.709Z,2.53
2017-08-06T19:30:31.421Z,7.03
2017-08-06T19:32:57.368Z,5.07
2017-08-06T19:35:23.343Z,4.07
2017-08-06T19:37:49.280Z,2.30
2017-08-06T19:40:15.232Z,3.00
2017-08-06T19:42:41.226Z,3.17
2017-08-06T19:45:07.167Z,3.13
2017-08-06T19:47:33.185Z,3.07
2017-08-06T19:49:59.128Z,3.13
2017-08-06T19:52:25.132Z,3.33
2017-08-06T19:54:51.128Z,3.10
2017-08-06T19:57:17.107Z,3.17
2017-08-06T19:59:43.040Z,3.80
2017-08-06T20:02:09.757Z,3.80
2017-08-06T20:04:36.452Z,3.50
2017-08-06T20:07:02.436Z,3.20
2017-08-06T20:09:28.380Z,3.07
2017-08-06T20:11:54.320Z,3.20
2017-08-06T20:14:20.337Z,3.30
2017-08-06T20:16:46.332Z,2.47
2017-08-06T20:19:12.283Z,3.27
2017-08-06T20:21:38.249Z,4.00
2017-08-06T20:24:04.208Z,3.80
2017-08-06T20:26:30.184Z,3.17
2017-08-06T20:28:56.152Z,3.00
2017-08-06T20:31:22.128Z,3.27
2017-08-06T20:33:48.089Z,3.10
2017-08-06T20:36:14.769Z,3.00
2017-08-06T20:38:40.744Z,3.10
2017-08-06T20:41:06.680Z,3.50
2017-08-06T20:43:32.648Z,3.57
2017-08-06T20:45:58.589Z,3.13
2017-08-06T20:48:24.569Z,3.10
2017-08-06T20:50:50.509Z,3.10
2017-08-06T20:53:16.481Z,3.37
2017-08-06T20:55:42.440Z,4.63
2017-08-06T20:58:08.373Z,4.70
2017-08-06T21:00:35.128Z,6.47
2017-08-06T21:03:01.069Z,6.00
2017-08-06T21:05:27.016Z,5.10
2017-08-06T21:07:53.741Z,5.70
2017-08-06T21:10:20.424Z,5.47
2017-08-06T21:12:46.404Z,5.63
2017-08-06T21:15:12.385Z,6.00
2017-08-06T21:17:39.064Z,5.47
2017-08-06T21:20:05.041Z,5.60
2017-08-06T21:22:31.064Z,6.00
2017-08-06T21:24:57.066Z,5.70
2017-08-06T21:27:23.016Z,6.87
2017-08-06T21:29:48.996Z,6.80
2017-08-06T21:32:14.937Z,7.43
2017-08-06T21:34:40.929Z,7.50
2017-08-06T21:37:06.908Z,7.67
2017-08-06T21:39:32.853Z,6.93
2017-08-06T21:41:58.841Z,7.50
2017-08-06T21:44:24.804Z,7.93
2017-08-06T21:46:51.484Z,7.23
2017-08-06T21:49:17.477Z,9.40
2017-08-06T21:51:43.422Z,11.10
2017-08-06T21:54:09.397Z,10.07
2017-08-06T21:56:35.341Z,8.40
2017-08-06T21:59:01.341Z,6.40
2017-08-06T22:01:27.279Z,6.40
2017-08-06T22:03:53.965Z,6.70
2017-08-06T22:06:19.981Z,5.63
2017-08-06T22:08:45.951Z,4.77
2017-08-06T22:11:11.897Z,4.53
2017-08-06T22:13:37.880Z,4.27
2017-08-06T22:16:03.852Z,4.77
2017-08-06T22:18:29.789Z,3.87
2017-08-06T22:20:55.765Z,4.40
2017-08-06T22:23:21.717Z,4.30
2017-08-06T22:25:47.746Z,3.60
2017-08-06T22:28:14.449Z,5.07
2017-08-06T22:30:40.438Z,4.37
2017-08-06T22:33:06.449Z,3.43
2017-08-06T22:35:32.409Z,4.03
2017-08-06T22:37:59.141Z,3.03
2017-08-06T22:40:25.089Z,3.33
2017-08-06T22:42:51.065Z,3.40
2017-08-06T22:45:17.011Z,3.30
2017-08-06T22:47:43.002Z,3.90
2017-08-06T22:50:08.944Z,3.53
2017-08-06T22:52:34.884Z,3.40
2017-08-06T22:55:00.926Z,3.80
2017-08-06T22:57:26.901Z,3.10
2017-08-06T22:59:52.841Z,3.87
2017-08-06T23:02:18.819Z,3.73
2017-08-06T23:04:45.510Z,3.63
2017-08-06T23:07:11.464Z,3.40
2017-08-06T23:09:37.448Z,3.87
2017-08-06T23:12:04.158Z,3.90
2017-08-06T23:14:30.100Z,3.30
2017-08-06T23:16:56.092Z,3.50
2017-08-06T23:19:22.785Z,4.40
2017-08-06T23:21:48.772Z,4.27
2017-08-06T23:24:14.736Z,3.97
2017-08-06T23:26:40.733Z,4.03
2017-08-06T23:29:06.708Z,4.03
2017-08-06T23:31:32.657Z,4.70
2017-08-06T23:33:58.681Z,4.17
2017-08-06T23:36:24.620Z,3.90
2017-08-06T23:38:50.560Z,4.37
2017-08-06T23:41:16.536Z,4.53
2017-08-06T23:43:42.477Z,4.37
2017-08-06T23:46:08.448Z,3.70
2017-08-06T23:48:34.472Z,4.37
2017-08-06T23:51:00.437Z,4.43
2017-08-06T23:53:27.152Z,4.40
2017-08-06T23:55:53.135Z,3.60
2017-08-06T23:58:19.077Z,4.40
